sensor_id;sensor_type;location;lat;lon;timestamp;P1;durP1;ratioP1;P2;durP2;ratioP2
16699;SDS011;8466;52.286;21.124;2023-08-12T00:01:54;9.90;;;7.33;;
16699;SDS011;8466;52.286;21.124;2023-08-12T00:04:22;9.73;;;7.73;;
16699;SDS011;8466;52.286;21.124;2023-08-12T00:06:51;8.07;;;6.97;;
16699;SDS011;8466;52.286;21.124;2023-08-12T00:09:19;9.60;;;7.50;;
16699;SDS011;8466;52.286;21.124;2023-08-12T00:11:49;9.43;;;7.73;;
16699;SDS011;8466;52.286;21.124;2023-08-12T00:14:18;12.30;;;8.07;;
16699;SDS011;8466;52.286;21.124;2023-08-12T00:16:47;9.27;;;7.97;;
16699;SDS011;8466;52.286;21.124;2023-08-12T00:19:16;11.20;;;8.37;;
16699;SDS011;8466;52.286;21.124;2023-08-12T00:21:44;11.93;;;8.07;;
16699;SDS011;8466;52.286;21.124;2023-08-12T00:24:13;10.67;;;7.67;;
16699;SDS011;8466;52.286;21.124;2023-08-12T00:26:43;11.88;;;8.23;;
16699;SDS011;8466;52.286;21.124;2023-08-12T00:29:13;14.47;;;8.67;;
16699;SDS011;8466;52.286;21.124;2023-08-12T00:31:41;10.10;;;7.87;;
16699;SDS011;8466;52.286;21.124;2023-08-12T00:34:10;12.17;;;8.07;;
16699;SDS011;8466;52.286;21.124;2023-08-12T00:36:39;11.70;;;8.13;;
16699;SDS011;8466;52.286;21.124;2023-08-12T00:39:07;10.33;;;8.17;;
16699;SDS011;8466;52.286;21.124;2023-08-12T00:41:36;12.20;;;8.13;;
16699;SDS011;8466;52.286;21.124;2023-08-12T00:44:05;10.37;;;7.83;;
16699;SDS011;8466;52.286;21.124;2023-08-12T00:46:35;10.93;;;8.50;;
16699;SDS011;8466;52.286;21.124;2023-08-12T00:49:05;11.20;;;7.80;;
16699;SDS011;8466;52.286;21.124;2023-08-12T00:54:43;9.80;;;7.83;;
16699;SDS011;8466;52.286;21.124;2023-08-12T00:57:12;10.30;;;8.07;;
16699;SDS011;8466;52.286;21.124;2023-08-12T00:59:41;11.73;;;8.30;;
16699;SDS011;8466;52.286;21.124;2023-08-12T01:02:13;10.40;;;8.27;;
16699;SDS011;8466;52.286;21.124;2023-08-12T01:04:42;12.03;;;7.93;;
16699;SDS011;8466;52.286;21.124;2023-08-12T01:07:15;12.53;;;7.83;;
16699;SDS011;8466;52.286;21.124;2023-08-12T01:09:44;10.40;;;7.60;;
16699;SDS011;8466;52.286;21.124;2023-08-12T01:12:13;12.40;;;8.13;;
16699;SDS011;8466;52.286;21.124;2023-08-12T01:14:46;11.57;;;8.10;;
16699;SDS011;8466;52.286;21.124;2023-08-12T01:17:25;11.67;;;7.87;;
16699;SDS011;8466;52.286;21.124;2023-08-12T01:19:57;12.27;;;8.23;;
16699;SDS011;8466;52.286;21.124;2023-08-12T01:22:28;12.50;;;7.83;;
16699;SDS011;8466;52.286;21.124;2023-08-12T01:25:01;10.53;;;7.80;;
16699;SDS011;8466;52.286;21.124;2023-08-12T01:27:30;11.43;;;7.80;;
16699;SDS011;8466;52.286;21.124;2023-08-12T01:29:58;10.60;;;7.73;;
16699;SDS011;8466;52.286;21.124;2023-08-12T01:32:29;11.87;;;7.90;;
16699;SDS011;8466;52.286;21.124;2023-08-12T01:35:06;10.07;;;7.70;;
16699;SDS011;8466;52.286;21.124;2023-08-12T01:37:39;10.30;;;7.60;;
16699;SDS011;8466;52.286;21.124;2023-08-12T01:40:09;10.27;;;7.50;;
16699;SDS011;8466;52.286;21.124;2023-08-12T01:42:39;10.50;;;7.50;;
16699;SDS011;8466;52.286;21.124;2023-08-12T01:45:08;11.30;;;7.53;;
16699;SDS011;8466;52.286;21.124;2023-08-12T01:47:38;10.10;;;7.77;;
16699;SDS011;8466;52.286;21.124;2023-08-12T01:50:10;9.93;;;7.13;;
16699;SDS011;8466;52.286;21.124;2023-08-12T01:52:39;10.10;;;7.23;;
16699;SDS011;8466;52.286;21.124;2023-08-12T01:55:08;10.23;;;7.37;;
16699;SDS011;8466;52.286;21.124;2023-08-12T01:57:38;10.40;;;7.30;;
16699;SDS011;8466;52.286;21.124;2023-08-12T02:00:07;11.67;;;7.27;;
16699;SDS011;8466;52.286;21.124;2023-08-12T02:02:35;10.27;;;7.37;;
16699;SDS011;8466;52.286;21.124;2023-08-12T02:05:04;8.47;;;6.90;;
16699;SDS011;8466;52.286;21.124;2023-08-12T02:07:33;9.47;;;7.07;;
16699;SDS011;8466;52.286;21.124;2023-08-12T02:10:02;10.27;;;7.47;;
16699;SDS011;8466;52.286;21.124;2023-08-12T02:12:32;13.50;;;7.67;;
16699;SDS011;8466;52.286;21.124;2023-08-12T02:15:01;7.97;;;7.03;;
16699;SDS011;8466;52.286;21.124;2023-08-12T02:17:30;10.03;;;6.67;;
16699;SDS011;8466;52.286;21.124;2023-08-12T02:19:58;9.53;;;7.17;;
16699;SDS011;8466;52.286;21.124;2023-08-12T02:22:27;9.43;;;7.23;;
16699;SDS011;8466;52.286;21.124;2023-08-12T02:24:56;13.67;;;7.40;;
16699;SDS011;8466;52.286;21.124;2023-08-12T02:27:25;7.43;;;6.70;;
16699;SDS011;8466;52.286;21.124;2023-08-12T02:29:55;9.27;;;6.43;;
16699;SDS011;8466;52.286;21.124;2023-08-12T02:32:23;8.80;;;7.00;;
16699;SDS011;8466;52.286;21.124;2023-08-12T02:34:53;10.67;;;7.33;;
16699;SDS011;8466;52.286;21.124;2023-08-12T02:37:21;8.80;;;7.07;;
16699;SDS011;8466;52.286;21.124;2023-08-12T02:39:50;9.90;;;6.77;;
16699;SDS011;8466;52.286;21.124;2023-08-12T02:42:18;8.47;;;6.57;;
16699;SDS011;8466;52.286;21.124;2023-08-12T02:44:47;8.40;;;6.90;;
16699;SDS011;8466;52.286;21.124;2023-08-12T02:47:17;8.43;;;6.83;;
16699;SDS011;8466;52.286;21.124;2023-08-12T02:49:46;8.87;;;6.20;;
16699;SDS011;8466;52.286;21.124;2023-08-12T02:52:15;9.40;;;7.10;;
16699;SDS011;8466;52.286;21.124;2023-08-12T02:54:43;8.00;;;6.17;;
16699;SDS011;8466;52.286;21.124;2023-08-12T02:57:13;7.60;;;6.73;;
16699;SDS011;8466;52.286;21.124;2023-08-12T02:59:41;9.70;;;7.23;;
16699;SDS011;8466;52.286;21.124;2023-08-12T03:02:10;8.87;;;6.33;;
16699;SDS011;8466;52.286;21.124;2023-08-12T03:04:40;8.60;;;6.50;;
16699;SDS011;8466;52.286;21.124;2023-08-12T03:07:09;8.57;;;7.23;;
16699;SDS011;8466;52.286;21.124;2023-08-12T03:09:38;13.33;;;7.33;;
16699;SDS011;8466;52.286;21.124;2023-08-12T03:12:07;8.70;;;7.23;;
16699;SDS011;8466;52.286;21.124;2023-08-12T03:14:35;8.30;;;6.97;;
16699;SDS011;8466;52.286;21.124;2023-08-12T03:17:04;7.50;;;6.37;;
16699;SDS011;8466;52.286;21.124;2023-08-12T03:19:33;8.63;;;6.77;;
16699;SDS011;8466;52.286;21.124;2023-08-12T03:22:03;7.37;;;6.47;;
16699;SDS011;8466;52.286;21.124;2023-08-12T03:24:32;9.50;;;6.27;;
16699;SDS011;8466;52.286;21.124;2023-08-12T03:27:00;9.53;;;6.83;;
16699;SDS011;8466;52.286;21.124;2023-08-12T03:29:29;9.17;;;6.40;;
16699;SDS011;8466;52.286;21.124;2023-08-12T03:31:58;10.50;;;6.87;;
16699;SDS011;8466;52.286;21.124;2023-08-12T03:34:27;9.20;;;6.70;;
16699;SDS011;8466;52.286;21.124;2023-08-12T03:36:56;10.00;;;6.50;;
16699;SDS011;8466;52.286;21.124;2023-08-12T03:39:26;10.17;;;7.50;;
16699;SDS011;8466;52.286;21.124;2023-08-12T03:41:55;11.10;;;6.90;;
16699;SDS011;8466;52.286;21.124;2023-08-12T03:44:24;9.33;;;6.97;;
16699;SDS011;8466;52.286;21.124;2023-08-12T03:46:52;9.80;;;6.90;;
16699;SDS011;8466;52.286;21.124;2023-08-12T03:49:21;8.97;;;6.00;;
16699;SDS011;8466;52.286;21.124;2023-08-12T03:51:50;9.10;;;6.47;;
16699;SDS011;8466;52.286;21.124;2023-08-12T03:54:18;8.50;;;6.83;;
16699;SDS011;8466;52.286;21.124;2023-08-12T03:56:48;7.87;;;6.30;;
16699;SDS011;8466;52.286;21.124;2023-08-12T03:59:17;7.57;;;6.07;;
16699;SDS011;8466;52.286;21.124;2023-08-12T04:01:46;10.83;;;6.90;;
16699;SDS011;8466;52.286;21.124;2023-08-12T04:04:15;7.87;;;7.00;;
16699;SDS011;8466;52.286;21.124;2023-08-12T04:06:43;8.47;;;6.67;;
16699;SDS011;8466;52.286;21.124;2023-08-12T04:09:14;8.83;;;6.23;;
16699;SDS011;8466;52.286;21.124;2023-08-12T04:11:45;7.27;;;6.50;;
16699;SDS011;8466;52.286;21.124;2023-08-12T04:14:16;9.43;;;5.87;;
16699;SDS011;8466;52.286;21.124;2023-08-12T04:16:44;8.70;;;5.77;;
16699;SDS011;8466;52.286;21.124;2023-08-12T04:19:13;8.05;;;5.72;;
16699;SDS011;8466;52.286;21.124;2023-08-12T04:21:42;6.57;;;5.10;;
16699;SDS011;8466;52.286;21.124;2023-08-12T04:24:13;5.57;;;4.95;;
16699;SDS011;8466;52.286;21.124;2023-08-12T04:26:41;6.38;;;5.20;;
16699;SDS011;8466;52.286;21.124;2023-08-12T04:29:12;5.88;;;4.50;;
16699;SDS011;8466;52.286;21.124;2023-08-12T04:31:42;8.98;;;4.80;;
16699;SDS011;8466;52.286;21.124;2023-08-12T04:34:11;7.60;;;5.40;;
16699;SDS011;8466;52.286;21.124;2023-08-12T04:36:39;7.00;;;5.13;;
16699;SDS011;8466;52.286;21.124;2023-08-12T04:39:10;7.05;;;5.18;;
16699;SDS011;8466;52.286;21.124;2023-08-12T04:41:38;8.80;;;5.43;;
16699;SDS011;8466;52.286;21.124;2023-08-12T04:44:08;6.30;;;5.57;;
16699;SDS011;8466;52.286;21.124;2023-08-12T04:46:36;8.50;;;5.32;;
16699;SDS011;8466;52.286;21.124;2023-08-12T04:49:06;6.28;;;5.63;;
16699;SDS011;8466;52.286;21.124;2023-08-12T04:51:35;6.65;;;5.63;;
16699;SDS011;8466;52.286;21.124;2023-08-12T04:54:04;8.70;;;6.22;;
16699;SDS011;8466;52.286;21.124;2023-08-12T04:56:34;6.95;;;6.22;;
16699;SDS011;8466;52.286;21.124;2023-08-12T04:59:02;6.68;;;5.93;;
16699;SDS011;8466;52.286;21.124;2023-08-12T05:01:31;8.23;;;5.47;;
16699;SDS011;8466;52.286;21.124;2023-08-12T05:04:00;6.38;;;5.40;;
16699;SDS011;8466;52.286;21.124;2023-08-12T05:06:30;8.57;;;5.53;;
16699;SDS011;8466;52.286;21.124;2023-08-12T05:08:59;6.43;;;5.43;;
16699;SDS011;8466;52.286;21.124;2023-08-12T05:11:27;6.47;;;5.30;;
16699;SDS011;8466;52.286;21.124;2023-08-12T05:13:56;8.85;;;5.22;;
16699;SDS011;8466;52.286;21.124;2023-08-12T05:16:24;8.43;;;4.88;;
16699;SDS011;8466;52.286;21.124;2023-08-12T05:18:53;8.20;;;5.15;;
16699;SDS011;8466;52.286;21.124;2023-08-12T05:21:22;7.68;;;5.43;;
16699;SDS011;8466;52.286;21.124;2023-08-12T05:23:52;8.07;;;5.05;;
16699;SDS011;8466;52.286;21.124;2023-08-12T05:26:21;6.10;;;4.57;;
16699;SDS011;8466;52.286;21.124;2023-08-12T05:28:59;7.30;;;4.75;;
16699;SDS011;8466;52.286;21.124;2023-08-12T05:31:29;5.97;;;4.63;;
16699;SDS011;8466;52.286;21.124;2023-08-12T05:33:58;5.55;;;4.78;;
16699;SDS011;8466;52.286;21.124;2023-08-12T05:36:26;6.63;;;4.60;;
16699;SDS011;8466;52.286;21.124;2023-08-12T05:38:56;6.20;;;4.07;;
16699;SDS011;8466;52.286;21.124;2023-08-12T05:41:25;5.63;;;4.22;;
16699;SDS011;8466;52.286;21.124;2023-08-12T05:43:54;6.05;;;3.70;;
16699;SDS011;8466;52.286;21.124;2023-08-12T05:46:23;8.30;;;4.05;;
16699;SDS011;8466;52.286;21.124;2023-08-12T05:48:51;4.80;;;4.30;;
16699;SDS011;8466;52.286;21.124;2023-08-12T05:51:20;6.93;;;4.25;;
16699;SDS011;8466;52.286;21.124;2023-08-12T05:53:49;5.18;;;3.92;;
16699;SDS011;8466;52.286;21.124;2023-08-12T05:56:19;4.70;;;3.75;;
16699;SDS011;8466;52.286;21.124;2023-08-12T05:58:48;5.03;;;3.30;;
16699;SDS011;8466;52.286;21.124;2023-08-12T06:01:17;4.18;;;3.78;;
16699;SDS011;8466;52.286;21.124;2023-08-12T06:03:47;9.63;;;4.07;;
16699;SDS011;8466;52.286;21.124;2023-08-12T06:06:17;4.57;;;3.75;;
16699;SDS011;8466;52.286;21.124;2023-08-12T06:08:45;3.80;;;3.42;;
16699;SDS011;8466;52.286;21.124;2023-08-12T06:11:14;4.22;;;3.63;;
16699;SDS011;8466;52.286;21.124;2023-08-12T06:13:44;4.05;;;3.58;;
16699;SDS011;8466;52.286;21.124;2023-08-12T06:16:13;10.52;;;3.50;;
16699;SDS011;8466;52.286;21.124;2023-08-12T06:18:42;3.85;;;3.10;;
16699;SDS011;8466;52.286;21.124;2023-08-12T06:21:10;5.40;;;3.30;;
16699;SDS011;8466;52.286;21.124;2023-08-12T06:23:39;6.00;;;3.42;;
16699;SDS011;8466;52.286;21.124;2023-08-12T06:26:07;3.97;;;2.80;;
16699;SDS011;8466;52.286;21.124;2023-08-12T06:28:36;3.35;;;2.92;;
16699;SDS011;8466;52.286;21.124;2023-08-12T06:31:06;2.90;;;2.60;;
16699;SDS011;8466;52.286;21.124;2023-08-12T06:33:35;3.63;;;2.67;;
16699;SDS011;8466;52.286;21.124;2023-08-12T06:36:04;3.80;;;3.40;;
16699;SDS011;8466;52.286;21.124;2023-08-12T06:38:33;6.32;;;2.88;;
16699;SDS011;8466;52.286;21.124;2023-08-12T06:41:02;5.10;;;3.05;;
16699;SDS011;8466;52.286;21.124;2023-08-12T06:43:30;7.60;;;3.67;;
16699;SDS011;8466;52.286;21.124;2023-08-12T06:45:59;3.63;;;2.85;;
16699;SDS011;8466;52.286;21.124;2023-08-12T06:48:29;3.85;;;2.80;;
16699;SDS011;8466;52.286;21.124;2023-08-12T06:51:01;6.45;;;2.90;;
16699;SDS011;8466;52.286;21.124;2023-08-12T06:53:37;3.10;;;2.50;;
16699;SDS011;8466;52.286;21.124;2023-08-12T06:56:06;8.98;;;3.38;;
16699;SDS011;8466;52.286;21.124;2023-08-12T06:58:35;4.97;;;3.28;;
16699;SDS011;8466;52.286;21.124;2023-08-12T07:01:03;4.25;;;2.92;;
16699;SDS011;8466;52.286;21.124;2023-08-12T07:03:33;3.13;;;2.50;;
16699;SDS011;8466;52.286;21.124;2023-08-12T07:06:02;3.15;;;2.10;;
16699;SDS011;8466;52.286;21.124;2023-08-12T07:08:31;2.88;;;2.20;;
16699;SDS011;8466;52.286;21.124;2023-08-12T07:11:00;3.50;;;2.20;;
16699;SDS011;8466;52.286;21.124;2023-08-12T07:13:28;3.53;;;2.28;;
16699;SDS011;8466;52.286;21.124;2023-08-12T07:15:57;4.60;;;2.28;;
16699;SDS011;8466;52.286;21.124;2023-08-12T07:18:26;3.65;;;2.00;;
16699;SDS011;8466;52.286;21.124;2023-08-12T07:20:58;3.38;;;1.95;;
16699;SDS011;8466;52.286;21.124;2023-08-12T07:23:27;8.00;;;2.13;;
16699;SDS011;8466;52.286;21.124;2023-08-12T07:25:56;3.90;;;1.90;;
16699;SDS011;8466;52.286;21.124;2023-08-12T07:28:25;4.80;;;2.20;;
16699;SDS011;8466;52.286;21.124;2023-08-12T07:30:54;4.22;;;2.42;;
16699;SDS011;8466;52.286;21.124;2023-08-12T07:33:22;6.47;;;2.28;;
16699;SDS011;8466;52.286;21.124;2023-08-12T07:35:51;2.30;;;1.60;;
16699;SDS011;8466;52.286;21.124;2023-08-12T07:38:21;3.88;;;2.08;;
16699;SDS011;8466;52.286;21.124;2023-08-12T07:40:50;4.00;;;1.90;;
16699;SDS011;8466;52.286;21.124;2023-08-12T07:43:19;4.70;;;2.03;;
16699;SDS011;8466;52.286;21.124;2023-08-12T07:45:50;3.10;;;1.90;;
16699;SDS011;8466;52.286;21.124;2023-08-12T07:48:34;3.63;;;1.80;;
16699;SDS011;8466;52.286;21.124;2023-08-12T07:51:06;1.90;;;1.50;;
16699;SDS011;8466;52.286;21.124;2023-08-12T07:53:36;2.30;;;1.67;;
16699;SDS011;8466;52.286;21.124;2023-08-12T07:56:05;3.10;;;2.00;;
16699;SDS011;8466;52.286;21.124;2023-08-12T07:58:35;1.50;;;1.40;;
16699;SDS011;8466;52.286;21.124;2023-08-12T08:01:03;3.70;;;1.63;;
16699;SDS011;8466;52.286;21.124;2023-08-12T08:03:36;6.50;;;1.90;;
16699;SDS011;8466;52.286;21.124;2023-08-12T08:06:04;2.50;;;1.88;;
16699;SDS011;8466;52.286;21.124;2023-08-12T08:08:33;3.05;;;1.98;;
16699;SDS011;8466;52.286;21.124;2023-08-12T08:11:03;4.43;;;1.90;;
16699;SDS011;8466;52.286;21.124;2023-08-12T08:13:32;3.40;;;1.52;;
16699;SDS011;8466;52.286;21.124;2023-08-12T08:16:01;3.65;;;1.83;;
16699;SDS011;8466;52.286;21.124;2023-08-12T08:18:30;2.55;;;1.55;;
16699;SDS011;8466;52.286;21.124;2023-08-12T08:20:58;2.85;;;1.52;;
16699;SDS011;8466;52.286;21.124;2023-08-12T08:23:31;4.85;;;2.05;;
16699;SDS011;8466;52.286;21.124;2023-08-12T08:26:00;3.97;;;1.77;;
16699;SDS011;8466;52.286;21.124;2023-08-12T08:28:30;2.28;;;1.52;;
16699;SDS011;8466;52.286;21.124;2023-08-12T08:30:59;2.33;;;1.55;;
16699;SDS011;8466;52.286;21.124;2023-08-12T08:33:28;3.70;;;1.77;;
16699;SDS011;8466;52.286;21.124;2023-08-12T08:35:57;3.65;;;1.70;;
16699;SDS011;8466;52.286;21.124;2023-08-12T08:38:26;4.47;;;1.98;;
16699;SDS011;8466;52.286;21.124;2023-08-12T08:40:55;2.42;;;1.70;;
16699;SDS011;8466;52.286;21.124;2023-08-12T08:43:25;3.75;;;1.80;;
16699;SDS011;8466;52.286;21.124;2023-08-12T08:45:57;2.30;;;1.75;;
16699;SDS011;8466;52.286;21.124;2023-08-12T08:48:27;3.55;;;1.65;;
16699;SDS011;8466;52.286;21.124;2023-08-12T08:50:57;1.70;;;1.60;;
16699;SDS011;8466;52.286;21.124;2023-08-12T08:53:28;3.05;;;2.03;;
16699;SDS011;8466;52.286;21.124;2023-08-12T08:55:59;4.38;;;2.13;;
16699;SDS011;8466;52.286;21.124;2023-08-12T08:58:29;4.00;;;1.92;;
16699;SDS011;8466;52.286;21.124;2023-08-12T09:01:01;2.50;;;1.73;;
16699;SDS011;8466;52.286;21.124;2023-08-12T09:03:30;2.58;;;1.83;;
16699;SDS011;8466;52.286;21.124;2023-08-12T09:06:00;2.72;;;1.85;;
16699;SDS011;8466;52.286;21.124;2023-08-12T09:08:30;2.75;;;1.80;;
16699;SDS011;8466;52.286;21.124;2023-08-12T09:11:00;2.78;;;1.67;;
16699;SDS011;8466;52.286;21.124;2023-08-12T09:13:31;4.13;;;2.00;;
16699;SDS011;8466;52.286;21.124;2023-08-12T09:16:01;3.58;;;2.05;;
16699;SDS011;8466;52.286;21.124;2023-08-12T09:18:31;2.65;;;1.50;;
16699;SDS011;8466;52.286;21.124;2023-08-12T09:21:00;2.83;;;1.98;;
16699;SDS011;8466;52.286;21.124;2023-08-12T09:23:33;2.53;;;1.95;;
16699;SDS011;8466;52.286;21.124;2023-08-12T09:26:05;2.78;;;1.90;;
16699;SDS011;8466;52.286;21.124;2023-08-12T09:28:41;3.15;;;1.60;;
16699;SDS011;8466;52.286;21.124;2023-08-12T09:31:21;2.95;;;1.70;;
16699;SDS011;8466;52.286;21.124;2023-08-12T09:33:52;3.13;;;1.52;;
16699;SDS011;8466;52.286;21.124;2023-08-12T09:36:21;4.03;;;2.08;;
16699;SDS011;8466;52.286;21.124;2023-08-12T09:38:50;2.42;;;1.67;;
16699;SDS011;8466;52.286;21.124;2023-08-12T09:41:20;4.82;;;1.85;;
16699;SDS011;8466;52.286;21.124;2023-08-12T09:43:50;2.28;;;1.40;;
16699;SDS011;8466;52.286;21.124;2023-08-12T09:46:22;3.08;;;1.70;;
16699;SDS011;8466;52.286;21.124;2023-08-12T09:48:51;2.25;;;1.63;;
16699;SDS011;8466;52.286;21.124;2023-08-12T09:51:20;3.45;;;1.77;;
16699;SDS011;8466;52.286;21.124;2023-08-12T09:53:50;4.97;;;1.90;;
16699;SDS011;8466;52.286;21.124;2023-08-12T09:56:23;2.10;;;1.50;;
16699;SDS011;8466;52.286;21.124;2023-08-12T09:58:54;4.13;;;1.50;;
16699;SDS011;8466;52.286;21.124;2023-08-12T10:01:25;2.50;;;1.52;;
16699;SDS011;8466;52.286;21.124;2023-08-12T10:03:54;1.92;;;1.60;;
16699;SDS011;8466;52.286;21.124;2023-08-12T10:06:23;3.50;;;1.67;;
16699;SDS011;8466;52.286;21.124;2023-08-12T10:08:53;2.05;;;1.50;;
16699;SDS011;8466;52.286;21.124;2023-08-12T10:11:21;2.20;;;1.65;;
16699;SDS011;8466;52.286;21.124;2023-08-12T10:13:51;2.22;;;1.60;;
16699;SDS011;8466;52.286;21.124;2023-08-12T10:16:20;2.00;;;1.58;;
16699;SDS011;8466;52.286;21.124;2023-08-12T10:18:51;2.40;;;1.88;;
16699;SDS011;8466;52.286;21.124;2023-08-12T10:21:20;5.55;;;1.70;;
16699;SDS011;8466;52.286;21.124;2023-08-12T10:23:51;4.63;;;1.70;;
16699;SDS011;8466;52.286;21.124;2023-08-12T10:26:21;6.18;;;1.85;;
16699;SDS011;8466;52.286;21.124;2023-08-12T10:28:51;1.90;;;1.60;;
16699;SDS011;8466;52.286;21.124;2023-08-12T10:31:20;3.35;;;1.90;;
16699;SDS011;8466;52.286;21.124;2023-08-12T10:33:50;3.20;;;1.73;;
16699;SDS011;8466;52.286;21.124;2023-08-12T10:36:20;2.60;;;1.70;;
16699;SDS011;8466;52.286;21.124;2023-08-12T10:38:49;2.25;;;1.70;;
16699;SDS011;8466;52.286;21.124;2023-08-12T10:41:20;2.25;;;1.60;;
16699;SDS011;8466;52.286;21.124;2023-08-12T10:43:53;3.45;;;1.73;;
16699;SDS011;8466;52.286;21.124;2023-08-12T10:46:23;2.22;;;1.65;;
16699;SDS011;8466;52.286;21.124;2023-08-12T10:48:59;2.38;;;1.60;;
16699;SDS011;8466;52.286;21.124;2023-08-12T10:51:46;3.78;;;1.65;;
16699;SDS011;8466;52.286;21.124;2023-08-12T10:54:22;3.60;;;1.85;;
16699;SDS011;8466;52.286;21.124;2023-08-12T10:57:06;2.42;;;1.77;;
16699;SDS011;8466;52.286;21.124;2023-08-12T11:02:28;2.92;;;1.90;;
16699;SDS011;8466;52.286;21.124;2023-08-12T11:05:02;5.90;;;2.97;;
16699;SDS011;8466;52.286;21.124;2023-08-12T11:07:33;3.42;;;1.73;;
16699;SDS011;8466;52.286;21.124;2023-08-12T11:10:10;3.42;;;2.28;;
16699;SDS011;8466;52.286;21.124;2023-08-12T11:12:40;3.03;;;1.83;;
16699;SDS011;8466;52.286;21.124;2023-08-12T11:15:13;2.92;;;1.48;;
16699;SDS011;8466;52.286;21.124;2023-08-12T11:17:45;2.13;;;1.73;;
16699;SDS011;8466;52.286;21.124;2023-08-12T11:20:17;2.90;;;1.77;;
16699;SDS011;8466;52.286;21.124;2023-08-12T11:23:02;2.45;;;1.75;;
16699;SDS011;8466;52.286;21.124;2023-08-12T11:25:32;2.17;;;1.70;;
16699;SDS011;8466;52.286;21.124;2023-08-12T11:28:03;2.55;;;1.77;;
16699;SDS011;8466;52.286;21.124;2023-08-12T11:30:32;2.60;;;1.80;;
16699;SDS011;8466;52.286;21.124;2023-08-12T11:33:04;2.78;;;1.73;;
16699;SDS011;8466;52.286;21.124;2023-08-12T11:35:35;6.47;;;1.90;;
16699;SDS011;8466;52.286;21.124;2023-08-12T11:38:05;3.08;;;1.50;;
16699;SDS011;8466;52.286;21.124;2023-08-12T11:40:35;3.28;;;1.88;;
16699;SDS011;8466;52.286;21.124;2023-08-12T11:43:07;2.63;;;1.88;;
16699;SDS011;8466;52.286;21.124;2023-08-12T11:45:41;4.63;;;2.00;;
16699;SDS011;8466;52.286;21.124;2023-08-12T11:49:06;2.17;;;1.85;;
16699;SDS011;8466;52.286;21.124;2023-08-12T11:51:36;3.25;;;2.00;;
16699;SDS011;8466;52.286;21.124;2023-08-12T11:54:09;2.60;;;1.77;;
16699;SDS011;8466;52.286;21.124;2023-08-12T11:56:41;4.28;;;2.30;;
16699;SDS011;8466;52.286;21.124;2023-08-12T11:59:11;3.55;;;2.47;;
16699;SDS011;8466;52.286;21.124;2023-08-12T12:01:40;4.57;;;1.90;;
16699;SDS011;8466;52.286;21.124;2023-08-12T12:04:12;3.70;;;2.20;;
16699;SDS011;8466;52.286;21.124;2023-08-12T12:06:43;4.13;;;1.67;;
16699;SDS011;8466;52.286;21.124;2023-08-12T12:09:12;5.03;;;2.00;;
16699;SDS011;8466;52.286;21.124;2023-08-12T12:11:44;2.63;;;2.08;;
16699;SDS011;8466;52.286;21.124;2023-08-12T12:14:13;4.93;;;2.03;;
16699;SDS011;8466;52.286;21.124;2023-08-12T12:16:42;9.63;;;2.47;;
16699;SDS011;8466;52.286;21.124;2023-08-12T12:19:14;3.28;;;2.10;;
16699;SDS011;8466;52.286;21.124;2023-08-12T12:21:47;4.35;;;2.28;;
16699;SDS011;8466;52.286;21.124;2023-08-12T12:24:19;3.40;;;1.77;;
16699;SDS011;8466;52.286;21.124;2023-08-12T12:26:49;2.60;;;1.90;;
16699;SDS011;8466;52.286;21.124;2023-08-12T12:29:17;3.00;;;2.08;;
16699;SDS011;8466;52.286;21.124;2023-08-12T12:31:46;5.95;;;2.60;;
16699;SDS011;8466;52.286;21.124;2023-08-12T12:34:15;4.43;;;2.00;;
16699;SDS011;8466;52.286;21.124;2023-08-12T12:36:46;2.83;;;1.70;;
16699;SDS011;8466;52.286;21.124;2023-08-12T12:39:14;3.05;;;1.90;;
16699;SDS011;8466;52.286;21.124;2023-08-12T12:41:43;2.95;;;2.03;;
16699;SDS011;8466;52.286;21.124;2023-08-12T12:44:14;3.20;;;2.22;;
16699;SDS011;8466;52.286;21.124;2023-08-12T12:46:42;5.60;;;2.30;;
16699;SDS011;8466;52.286;21.124;2023-08-12T12:49:11;2.83;;;1.90;;
16699;SDS011;8466;52.286;21.124;2023-08-12T12:51:40;2.55;;;2.10;;
16699;SDS011;8466;52.286;21.124;2023-08-12T12:54:10;2.65;;;2.00;;
16699;SDS011;8466;52.286;21.124;2023-08-12T12:56:39;3.45;;;2.08;;
16699;SDS011;8466;52.286;21.124;2023-08-12T12:59:08;4.38;;;1.75;;
16699;SDS011;8466;52.286;21.124;2023-08-12T13:01:36;4.45;;;2.35;;
16699;SDS011;8466;52.286;21.124;2023-08-12T13:04:05;2.92;;;2.10;;
16699;SDS011;8466;52.286;21.124;2023-08-12T13:06:35;39.75;;;29.85;;
16699;SDS011;8466;52.286;21.124;2023-08-12T13:09:04;18.35;;;14.55;;
16699;SDS011;8466;52.286;21.124;2023-08-12T13:11:34;3.55;;;3.20;;
16699;SDS011;8466;52.286;21.124;2023-08-12T13:14:03;3.35;;;2.25;;
16699;SDS011;8466;52.286;21.124;2023-08-12T13:16:32;6.43;;;2.63;;
16699;SDS011;8466;52.286;21.124;2023-08-12T13:19:01;3.10;;;2.00;;
16699;SDS011;8466;52.286;21.124;2023-08-12T13:21:30;2.30;;;1.75;;
16699;SDS011;8466;52.286;21.124;2023-08-12T13:24:02;3.40;;;2.40;;
16699;SDS011;8466;52.286;21.124;2023-08-12T13:26:31;4.18;;;2.20;;
16699;SDS011;8466;52.286;21.124;2023-08-12T13:29:01;2.08;;;1.85;;
16699;SDS011;8466;52.286;21.124;2023-08-12T13:31:31;3.15;;;2.15;;
16699;SDS011;8466;52.286;21.124;2023-08-12T13:34:00;3.78;;;2.08;;
16699;SDS011;8466;52.286;21.124;2023-08-12T13:36:29;2.60;;;2.38;;
16699;SDS011;8466;52.286;21.124;2023-08-12T13:38:58;8.85;;;6.30;;
16699;SDS011;8466;52.286;21.124;2023-08-12T13:41:27;12.38;;;9.40;;
16699;SDS011;8466;52.286;21.124;2023-08-12T13:43:55;2.95;;;2.63;;
16699;SDS011;8466;52.286;21.124;2023-08-12T13:46:25;3.38;;;2.20;;
16699;SDS011;8466;52.286;21.124;2023-08-12T13:48:54;4.40;;;2.90;;
16699;SDS011;8466;52.286;21.124;2023-08-12T13:51:23;5.28;;;2.80;;
16699;SDS011;8466;52.286;21.124;2023-08-12T13:53:52;5.00;;;2.85;;
16699;SDS011;8466;52.286;21.124;2023-08-12T13:56:24;7.55;;;2.42;;
16699;SDS011;8466;52.286;21.124;2023-08-12T13:59:00;13.48;;;8.07;;
16699;SDS011;8466;52.286;21.124;2023-08-12T14:01:31;30.52;;;27.45;;
16699;SDS011;8466;52.286;21.124;2023-08-12T14:04:00;16.00;;;13.55;;
16699;SDS011;8466;52.286;21.124;2023-08-12T14:06:28;7.90;;;3.15;;
16699;SDS011;8466;52.286;21.124;2023-08-12T14:08:57;3.83;;;2.63;;
16699;SDS011;8466;52.286;21.124;2023-08-12T14:11:26;3.40;;;2.25;;
16699;SDS011;8466;52.286;21.124;2023-08-12T14:13:56;2.38;;;2.10;;
16699;SDS011;8466;52.286;21.124;2023-08-12T14:16:25;4.30;;;2.08;;
16699;SDS011;8466;52.286;21.124;2023-08-12T14:18:56;2.75;;;2.47;;
16699;SDS011;8466;52.286;21.124;2023-08-12T14:21:25;3.65;;;2.17;;
16699;SDS011;8466;52.286;21.124;2023-08-12T14:23:54;3.80;;;2.00;;
16699;SDS011;8466;52.286;21.124;2023-08-12T14:26:23;5.80;;;2.40;;
16699;SDS011;8466;52.286;21.124;2023-08-12T14:28:52;3.50;;;2.33;;
16699;SDS011;8466;52.286;21.124;2023-08-12T14:31:20;2.53;;;1.73;;
16699;SDS011;8466;52.286;21.124;2023-08-12T14:33:49;2.00;;;1.80;;
16699;SDS011;8466;52.286;21.124;2023-08-12T14:36:19;3.83;;;2.20;;
16699;SDS011;8466;52.286;21.124;2023-08-12T14:38:49;8.63;;;5.35;;
16699;SDS011;8466;52.286;21.124;2023-08-12T14:41:18;5.60;;;3.42;;
16699;SDS011;8466;52.286;21.124;2023-08-12T14:43:47;2.97;;;1.95;;
16699;SDS011;8466;52.286;21.124;2023-08-12T14:46:15;2.53;;;1.95;;
16699;SDS011;8466;52.286;21.124;2023-08-12T14:48:44;3.10;;;1.75;;
16699;SDS011;8466;52.286;21.124;2023-08-12T14:51:13;3.05;;;2.28;;
16699;SDS011;8466;52.286;21.124;2023-08-12T14:53:43;2.75;;;2.10;;
16699;SDS011;8466;52.286;21.124;2023-08-12T14:56:14;4.45;;;2.30;;
16699;SDS011;8466;52.286;21.124;2023-08-12T14:58:43;5.10;;;3.78;;
16699;SDS011;8466;52.286;21.124;2023-08-12T15:01:12;6.47;;;3.08;;
16699;SDS011;8466;52.286;21.124;2023-08-12T15:03:41;3.15;;;2.03;;
16699;SDS011;8466;52.286;21.124;2023-08-12T15:06:11;4.10;;;2.25;;
16699;SDS011;8466;52.286;21.124;2023-08-12T15:08:41;4.47;;;2.30;;